Time;durP1;ratioP1;P1;durP2;ratioP2;P2;SDS_P1;SDS_P2;PMS_P1;PMS_P2;Temp;Humidity;BMP_temperature;BMP_pressure;BME280_temperature;BME280_humidity;BME280_pressure;Samples;Min_cycle;Max_cycle;Signal;HPM_P1;HPM_P2
2021/11/12 00:14:51;;;;;;;33.67;20.40;;;3.50;99.90;;;;;;5036237;28;20025;-84
2021/11/12 00:17:19;;;;;;;34.90;21.30;;;4.00;99.90;;;;;;5017982;28;20144;-84
2021/11/12 00:19:46;;;;;;;36.70;22.60;;;4.20;99.90;;;;;;5017765;28;20028;-83
2021/11/12 00:22:13;;;;;;;37.35;22.05;;;4.20;99.90;;;;;;5017577;28;20037;-84
2021/11/12 00:24:39;;;;;;;38.63;21.90;;;4.10;99.90;;;;;;5017615;28;20034;-83
2021/11/12 00:27:06;;;;;;;31.35;20.55;;;3.80;99.90;;;;;;5017576;28;20505;-84
2021/11/12 00:29:40;;;;;;;31.80;20.58;;;4.10;99.90;;;;;;5035313;28;20071;-84
2021/11/12 00:32:13;;;;;;;33.83;19.50;;;4.10;99.90;;;;;;5017603;28;20025;-84
2021/11/12 00:37:14;;;;;;;37.40;21.95;;;4.50;99.90;;;;;;5035706;28;20075;-83
2021/11/12 00:39:48;;;;;;;34.90;21.33;;;4.00;99.90;;;;;;5017389;28;20022;-84
2021/11/12 00:42:21;;;;;;;27.08;18.73;;;3.90;99.90;;;;;;5017353;28;20025;-84
2021/11/12 00:44:51;;;;;;;35.80;23.10;;;3.80;99.90;;;;;;5034098;28;20481;-84
2021/11/12 00:47:26;;;;;;;31.90;19.42;;;3.70;99.90;;;;;;5017195;28;20029;-84
2021/11/12 00:55:26;;;;;;;28.48;18.55;;;4.00;99.90;;;;;;5011475;28;20037;-84
2021/11/12 00:57:54;;;;;;;32.58;20.73;;;4.30;99.90;;;;;;5016898;28;20026;-84
2021/11/12 01:00:20;;;;;;;33.67;20.98;;;4.10;99.90;;;;;;5016884;28;20022;-83
2021/11/12 01:02:46;;;;;;;38.45;22.42;;;3.90;99.90;;;;;;5016825;28;20040;-84
2021/11/12 01:05:12;;;;;;;34.75;22.35;;;3.90;99.90;;;;;;5016900;28;20022;-83
2021/11/12 01:07:39;;;;;;;34.28;19.98;;;3.60;99.90;;;;;;5016826;28;20028;-83
2021/11/12 01:10:08;;;;;;;38.10;23.75;;;3.90;99.90;;;;;;5016773;28;20018;-84
2021/11/12 01:12:35;;;;;;;38.55;23.08;;;4.00;99.90;;;;;;5016840;28;20057;-84
2021/11/12 01:15:03;;;;;;;41.33;24.73;;;3.70;99.90;;;;;;5034316;28;20421;-83
2021/11/12 01:17:30;;;;;;;38.72;24.55;;;3.70;99.90;;;;;;5016568;28;20032;-84
2021/11/12 01:19:56;;;;;;;36.42;22.33;;;3.60;99.90;;;;;;5016600;28;20508;-84
2021/11/12 01:22:22;;;;;;;31.15;20.45;;;3.50;99.90;;;;;;5013109;28;20050;-83
2021/11/12 01:24:49;;;;;;;37.67;24.02;;;4.10;99.90;;;;;;5013243;28;20034;-84
2021/11/12 01:27:15;;;;;;;29.58;18.52;;;4.10;99.90;;;;;;5013176;28;20030;-84
2021/11/12 01:29:42;;;;;;;37.17;22.00;;;4.30;99.90;;;;;;5014430;28;20030;-84
2021/11/12 01:32:26;;;;;;;38.05;22.23;;;3.70;99.90;;;;;;5013066;28;20054;-84
2021/11/12 01:34:55;;;;;;;38.00;22.30;;;3.60;99.90;;;;;;5013320;28;20034;-84
2021/11/12 01:37:24;;;;;;;37.55;20.73;;;4.00;99.90;;;;;;5012978;28;20033;-84
2021/11/12 01:39:56;;;;;;;29.98;18.42;;;3.80;99.90;;;;;;5012920;28;20054;-84
2021/11/12 01:42:25;;;;;;;29.45;19.05;;;3.90;99.90;;;;;;5014234;28;20018;-84
2021/11/12 01:44:57;;;;;;;29.92;18.50;;;3.80;99.90;;;;;;5012862;28;20026;-84
2021/11/12 01:49:51;;;;;;;28.73;18.38;;;4.10;99.90;;;;;;5014349;28;20027;-84
2021/11/12 01:52:30;;;;;;;23.77;16.45;;;4.20;99.90;;;;;;5012752;28;20030;-83
2021/11/12 01:55:09;;;;;;;29.90;17.13;;;4.30;99.90;;;;;;5012565;28;20029;-84
2021/11/12 01:58:04;;;;;;;32.25;19.08;;;4.20;99.90;;;;;;5014167;28;20084;-83
2021/11/12 02:00:32;;;;;;;27.55;18.23;;;3.80;99.90;;;;;;5013883;28;20096;-84
2021/11/12 02:02:59;;;;;;;27.10;17.50;;;3.60;99.90;;;;;;5013841;28;20030;-84
2021/11/12 02:05:26;;;;;;;26.02;16.65;;;4.00;99.90;;;;;;5013760;28;20445;-84
2021/11/12 02:07:53;;;;;;;25.35;15.85;;;4.00;99.90;;;;;;5013750;28;20466;-84
2021/11/12 02:10:24;;;;;;;26.05;16.90;;;4.00;99.90;;;;;;5012427;28;20060;-84
2021/11/12 02:15:21;;;;;;;24.75;15.40;;;3.60;99.90;;;;;;5013889;28;20032;-84
2021/11/12 02:17:54;;;;;;;26.13;16.30;;;4.00;99.90;;;;;;5013601;28;20018;-84
2021/11/12 02:20:45;;;;;;;23.73;14.32;;;3.90;99.90;;;;;;5013592;28;20544;-84
2021/11/12 02:23:08;;;;;;;30.02;17.80;;;4.00;99.90;;;;;;5013441;28;20045;-84
2021/11/12 02:25:38;;;;;;;25.35;14.90;;;4.10;99.90;;;;;;5012298;28;20029;-84
2021/11/12 02:28:09;;;;;;;32.70;16.88;;;3.80;99.90;;;;;;5012451;28;20037;-85
2021/11/12 02:30:36;;;;;;;28.50;18.15;;;3.70;99.90;;;;;;5012354;28;20026;-85
2021/11/12 02:33:13;;;;;;;25.83;16.83;;;3.60;99.90;;;;;;5012458;28;20058;-84
2021/11/12 02:36:01;;;;;;;28.27;16.58;;;3.40;99.90;;;;;;5012137;28;20022;-85
2021/11/12 02:38:29;;;;;;;25.15;16.15;;;3.40;99.90;;;;;;5011547;28;20125;-85
2021/11/12 02:40:56;;;;;;;25.35;16.77;;;3.30;99.90;;;;;;5012090;28;20022;-85
2021/11/12 02:43:23;;;;;;;22.52;13.95;;;3.40;99.90;;;;;;5013339;28;20542;-84
2021/11/12 02:45:49;;;;;;;20.73;13.93;;;3.80;99.90;;;;;;5013307;28;20049;-85
2021/11/12 02:48:15;;;;;;;24.95;17.02;;;4.10;99.90;;;;;;5012040;28;20030;-84
2021/11/12 02:50:41;;;;;;;21.48;14.63;;;3.80;99.90;;;;;;5012040;28;20164;-85
2021/11/12 02:53:16;;;;;;;30.52;17.42;;;3.60;99.90;;;;;;5012023;28;20026;-85
2021/11/12 02:55:44;;;;;;;21.83;14.02;;;3.20;99.90;;;;;;5012723;28;20459;-85
2021/11/12 02:58:11;;;;;;;24.80;16.60;;;3.20;99.90;;;;;;5011907;28;20033;-85
2021/11/12 03:00:39;;;;;;;26.27;17.60;;;3.50;99.90;;;;;;5011941;28;20444;-85
2021/11/12 03:03:05;;;;;;;25.23;17.60;;;3.40;99.90;;;;;;5011923;28;20025;-84
2021/11/12 03:05:32;;;;;;;23.95;16.60;;;3.50;99.90;;;;;;5011915;28;20490;-84
2021/11/12 03:07:59;;;;;;;28.40;18.08;;;3.50;99.90;;;;;;5014763;28;20033;-85
2021/11/12 03:10:24;;;;;;;28.92;17.98;;;3.30;99.90;;;;;;5017000;28;20547;-84
2021/11/12 03:12:52;;;;;;;28.60;18.95;;;3.20;99.90;;;;;;5015682;28;20026;-85
2021/11/12 03:15:18;;;;;;;26.48;18.10;;;3.00;99.90;;;;;;5015589;28;20478;-85
2021/11/12 03:17:48;;;;;;;29.08;18.33;;;2.80;99.90;;;;;;5015647;28;20030;-84
2021/11/12 03:20:14;;;;;;;27.13;18.27;;;2.80;99.90;;;;;;5015560;28;20029;-84
2021/11/12 03:22:47;;;;;;;22.83;16.08;;;2.70;99.90;;;;;;5015330;28;20120;-84
2021/11/12 03:47:12;;;;;;;16.55;11.10;;;4.30;99.90;;;;;;5016928;28;20536;-84
2021/11/12 03:56:32;;;;;;;23.38;14.95;;;4.30;99.90;;;;;;5016274;28;20092;-83
2021/11/12 04:00:55;;;;;;;23.48;15.55;;;3.70;99.90;;;;;;5016646;28;20496;-83
2021/11/12 05:03:08;;;;;;;14.23;8.82;;;2.70;99.90;;;;;;5035057;28;20032;-83
2021/11/12 05:14:11;;;;;;;21.63;12.52;;;3.20;99.90;;;;;;5034989;28;20113;-83
2021/11/12 05:44:06;;;;;;;23.15;12.63;;;2.70;99.90;;;;;;5034233;28;20045;-83
2021/11/12 05:57:31;;;;;;;27.90;16.40;;;2.50;99.90;;;;;;5031018;28;20026;-83
2021/11/12 05:59:57;;;;;;;24.10;16.75;;;2.60;99.90;;;;;;5015840;28;20025;-84
2021/11/12 06:02:23;;;;;;;23.13;14.45;;;2.60;99.90;;;;;;5016088;28;20084;-83
2021/11/12 06:04:50;;;;;;;18.48;12.15;;;2.60;99.90;;;;;;5015856;28;20030;-84
2021/11/12 06:07:16;;;;;;;23.65;14.15;;;2.80;99.90;;;;;;5015845;28;20116;-84
2021/11/12 06:09:42;;;;;;;23.30;13.45;;;3.10;99.90;;;;;;5033475;28;20064;-83
2021/11/12 06:12:13;;;;;;;18.02;12.00;;;3.20;99.90;;;;;;5015677;28;20113;-84
2021/11/12 06:14:40;;;;;;;23.13;14.05;;;3.00;99.90;;;;;;5015588;28;20064;-83
2021/11/12 06:17:06;;;;;;;18.48;13.40;;;2.60;99.90;;;;;;5015645;28;20071;-84
2021/11/12 06:19:31;;;;;;;19.08;11.45;;;2.70;99.90;;;;;;5015638;28;20025;-84
2021/11/12 06:21:57;;;;;;;23.05;16.52;;;3.00;99.90;;;;;;5012064;28;20053;-84
2021/11/12 06:24:24;;;;;;;19.42;14.13;;;3.10;99.90;;;;;;5012258;28;20040;-84
2021/11/12 06:26:51;;;;;;;22.98;15.57;;;2.90;99.90;;;;;;5013538;28;20025;-84
2021/11/12 06:29:16;;;;;;;26.23;16.10;;;2.90;99.90;;;;;;5012231;28;20026;-83
2021/11/12 06:31:42;;;;;;;24.98;16.08;;;2.60;99.90;;;;;;5012192;28;20398;-84
2021/11/12 06:34:08;;;;;;;27.35;16.80;;;2.70;99.90;;;;;;5012336;28;20033;-84
2021/11/12 06:36:34;;;;;;;24.58;16.02;;;2.60;99.90;;;;;;5012410;28;20045;-83
2021/11/12 06:39:00;;;;;;;24.92;15.32;;;2.80;99.90;;;;;;5012355;28;20025;-84
2021/11/12 06:49:49;;;;;;;27.02;16.75;;;2.90;99.90;;;;;;5013622;28;20340;-84
2021/11/12 06:52:16;;;;;;;22.85;14.35;;;2.60;99.90;;;;;;5013374;28;20021;-84
2021/11/12 06:54:45;;;;;;;25.70;15.55;;;2.60;99.90;;;;;;5011941;28;20061;-84
2021/11/12 06:57:12;;;;;;;24.77;15.32;;;2.70;99.90;;;;;;5011885;28;20025;-84
2021/11/12 06:59:39;;;;;;;24.38;15.13;;;2.60;99.90;;;;;;5012696;28;20030;-84
2021/11/12 07:02:05;;;;;;;23.13;14.75;;;2.60;99.90;;;;;;5013448;28;20022;-84
2021/11/12 07:04:31;;;;;;;26.77;16.92;;;2.80;99.90;;;;;;5013464;28;20500;-84
2021/11/12 07:06:58;;;;;;;23.95;13.73;;;2.70;99.90;;;;;;5013336;28;20034;-84
2021/11/12 07:09:23;;;;;;;27.95;15.18;;;3.20;99.90;;;;;;5011816;28;20054;-84
2021/11/12 07:11:49;;;;;;;59.95;19.33;;;3.40;99.90;;;;;;5013090;28;20030;-84
2021/11/12 07:14:15;;;;;;;39.50;16.35;;;3.60;99.90;;;;;;5011655;28;20084;-85
2021/11/12 07:16:40;;;;;;;26.92;14.35;;;3.50;99.90;;;;;;5011742;28;20395;-85
2021/11/12 07:19:06;;;;;;;33.40;17.65;;;3.50;99.90;;;;;;5012020;28;20018;-84
2021/11/12 07:21:32;;;;;;;34.42;18.08;;;3.50;99.90;;;;;;5011447;28;20072;-84
2021/11/12 07:23:59;;;;;;;31.77;18.13;;;3.10;99.90;;;;;;5011624;28;20538;-84
2021/11/12 07:26:24;;;;;;;28.80;17.92;;;2.90;99.90;;;;;;5012946;28;20105;-84
2021/11/12 07:28:51;;;;;;;27.98;17.52;;;3.10;99.90;;;;;;5011619;28;20058;-84
2021/11/12 07:31:18;;;;;;;29.70;17.13;;;3.00;99.90;;;;;;5011542;28;20060;-84
2021/11/12 07:33:46;;;;;;;27.52;16.15;;;3.00;99.90;;;;;;5011469;28;20041;-84
2021/11/12 07:36:22;;;;;;;30.30;18.55;;;3.10;99.90;;;;;;5012697;28;20097;-84
2021/11/12 07:38:52;;;;;;;35.90;19.58;;;3.40;99.90;;;;;;5011559;28;20026;-84
2021/11/12 07:41:28;;;;;;;34.42;20.13;;;3.40;99.90;;;;;;5012718;28;20014;-84
2021/11/12 07:46:41;;;;;;;42.05;22.60;;;3.20;99.90;;;;;;5013377;28;20061;-84
2021/11/12 07:49:09;;;;;;;41.72;23.48;;;3.00;99.90;;;;;;5011414;28;20120;-84
2021/11/12 07:51:36;;;;;;;51.25;26.92;;;3.20;99.90;;;;;;5012701;28;20026;-85
2021/11/12 07:54:03;;;;;;;51.40;28.45;;;3.00;99.90;;;;;;5014066;28;20390;-85
2021/11/12 07:56:30;;;;;;;38.17;20.83;;;3.20;99.90;;;;;;5016121;28;20029;-85
2021/11/12 07:58:55;;;;;;;38.80;19.75;;;3.40;99.90;;;;;;5014825;28;20054;-85
2021/11/12 08:01:21;;;;;;;34.22;20.02;;;3.40;99.90;;;;;;5014774;28;20457;-84
2021/11/12 08:03:52;;;;;;;37.67;20.48;;;3.40;99.90;;;;;;5014714;28;20058;-85
2021/11/12 08:06:18;;;;;;;29.70;18.60;;;3.50;99.90;;;;;;5016236;28;20026;-85
2021/11/12 08:08:53;;;;;;;34.97;20.23;;;3.60;99.90;;;;;;5014676;28;20029;-85
2021/11/12 08:11:24;;;;;;;38.15;19.73;;;3.70;99.90;;;;;;5015928;28;20119;-85
2021/11/12 08:13:58;;;;;;;37.05;21.10;;;4.00;99.90;;;;;;5014520;28;20025;-85
2021/11/12 08:21:21;;;;;;;31.90;19.05;;;4.60;99.90;;;;;;5023054;28;20044;-85
2021/11/12 08:29:19;;;;;;;34.22;20.27;;;4.70;99.90;;;;;;5035617;28;20108;-84
2021/11/12 08:42:33;;;;;;;31.05;19.15;;;5.70;99.90;;;;;;5035377;28;20256;-84
2021/11/12 08:45:14;;;;;;;33.75;20.67;;;5.70;99.90;;;;;;5017267;28;20021;-84
2021/11/12 08:47:42;;;;;;;26.33;17.45;;;6.00;99.90;;;;;;5017254;28;20029;-85
2021/11/12 08:50:16;;;;;;;29.73;18.15;;;6.10;99.90;;;;;;5017168;28;20021;-84
2021/11/12 08:52:43;;;;;;;29.92;19.15;;;6.20;99.90;;;;;;5034907;28;20028;-84
2021/11/12 08:55:09;;;;;;;33.95;20.95;;;6.30;99.90;;;;;;5016938;28;20026;-85
2021/11/12 08:57:35;;;;;;;33.33;18.67;;;6.30;99.90;;;;;;5016893;28;20075;-84
2021/11/12 09:00:04;;;;;;;26.65;18.08;;;6.30;99.90;;;;;;5016944;28;20060;-84
2021/11/12 09:02:30;;;;;;;25.48;17.25;;;6.70;99.90;;;;;;5017734;28;20504;-83
2021/11/12 09:04:56;;;;;;;24.98;17.88;;;6.80;99.90;;;;;;5018164;28;20029;-83
2021/11/12 09:07:23;;;;;;;28.63;18.08;;;7.20;99.90;;;;;;5018787;28;20030;-84
2021/11/12 09:09:54;;;;;;;26.65;17.13;;;7.30;99.90;;;;;;5016953;28;20033;-83
2021/11/12 09:12:22;;;;;;;34.05;20.65;;;7.20;99.90;;;;;;5016946;28;20029;-84
2021/11/12 09:14:50;;;;;;;29.77;18.98;;;7.10;99.90;;;;;;5016734;28;20504;-83
2021/11/12 09:17:20;;;;;;;28.98;18.58;;;7.20;99.90;;;;;;5016668;28;20032;-83
2021/11/12 09:19:48;;;;;;;32.28;19.20;;;7.30;99.90;;;;;;5016640;28;20028;-83
2021/11/12 09:22:15;;;;;;;33.78;19.77;;;7.30;99.90;;;;;;5034131;28;20038;-83
2021/11/12 09:24:43;;;;;;;29.73;17.67;;;7.50;99.90;;;;;;5016475;28;20061;-84
2021/11/12 09:27:09;;;;;;;23.83;15.57;;;7.60;99.90;;;;;;5017254;28;20029;-83
2021/11/12 09:29:35;;;;;;;27.25;18.70;;;7.80;99.90;;;;;;5016362;28;20032;-83
2021/11/12 09:32:02;;;;;;;26.05;16.65;;;8.00;99.90;;;;;;5016300;28;20056;-83
2021/11/12 09:34:34;;;;;;;30.77;18.63;;;8.10;99.90;;;;;;5016194;28;20481;-82
2021/11/12 09:37:00;;;;;;;26.90;17.05;;;8.30;99.90;;;;;;5034042;28;20071;-83
2021/11/12 09:39:26;;;;;;;26.42;17.80;;;8.20;99.90;;;;;;5016242;28;20030;-83
2021/11/12 09:41:52;;;;;;;24.75;17.08;;;8.40;99.90;;;;;;5033934;28;20035;-83
2021/11/12 09:44:18;;;;;;;25.75;16.17;;;8.60;99.90;;;;;;5016148;28;20030;-83
2021/11/12 09:46:44;;;;;;;26.63;17.88;;;8.80;99.90;;;;;;5016334;28;20025;-83
2021/11/12 09:49:09;;;;;;;27.75;16.90;;;9.00;99.90;;;;;;5015993;28;20401;-83
2021/11/12 09:51:36;;;;;;;24.90;15.70;;;9.10;99.90;;;;;;5016053;28;20025;-83
2021/11/12 09:54:02;;;;;;;26.58;17.55;;;9.40;99.90;;;;;;5015956;28;20025;-83
2021/11/12 09:56:28;;;;;;;25.52;16.23;;;9.40;99.90;;;;;;5015923;28;20116;-83
2021/11/12 09:58:54;;;;;;;25.23;17.70;;;9.70;99.90;;;;;;5015991;28;20112;-83
2021/11/12 10:01:27;;;;;;;27.40;16.73;;;9.80;99.90;;;;;;5015888;28;20456;-83
2021/11/12 10:03:53;;;;;;;21.05;14.18;;;9.90;99.90;;;;;;5015921;28;20021;-83
2021/11/12 10:06:25;;;;;;;18.80;13.77;;;10.20;99.90;;;;;;5015916;28;20120;-83
2021/11/12 10:08:52;;;;;;;22.92;14.82;;;10.30;99.90;;;;;;5015731;28;20041;-83
2021/11/12 10:11:26;;;;;;;21.33;13.52;;;10.50;99.90;;;;;;5015695;28;20029;-83
2021/11/12 10:13:59;;;;;;;18.73;13.52;;;10.60;99.90;;;;;;5015584;28;20022;-83
2021/11/12 10:16:36;;;;;;;24.23;15.32;;;10.70;99.90;;;;;;5015744;28;20064;-84
2021/11/12 10:19:05;;;;;;;20.10;13.65;;;10.80;99.90;;;;;;5015667;28;20482;-83
2021/11/12 10:21:38;;;;;;;22.40;15.02;;;10.90;99.90;;;;;;5012039;28;20061;-84
2021/11/12 10:24:07;;;;;;;21.52;14.45;;;11.10;99.90;;;;;;5013572;28;20026;-84
2021/11/12 10:26:35;;;;;;;21.77;14.10;;;11.40;99.90;;;;;;4995867;28;20034;-83
2021/11/12 10:29:08;;;;;;;23.65;13.63;;;11.50;99.90;;;;;;5012110;28;20143;-84
2021/11/12 10:31:40;;;;;;;20.98;13.55;;;11.70;99.90;;;;;;5013538;28;20033;-83
2021/11/12 10:34:18;;;;;;;19.42;13.40;;;11.60;99.90;;;;;;5012131;28;20030;-84
2021/11/12 10:36:56;;;;;;;18.45;13.38;;;11.70;99.90;;;;;;5012184;28;20033;-84
2021/11/12 10:39:34;;;;;;;19.42;13.65;;;11.90;99.90;;;;;;5012637;28;20540;-84
2021/11/12 10:42:07;;;;;;;21.98;14.00;;;12.10;99.90;;;;;;5012175;28;20022;-84
2021/11/12 10:44:57;;;;;;;20.05;14.30;;;12.30;99.90;;;;;;5012136;28;20033;-84
2021/11/12 10:47:24;;;;;;;25.17;12.75;;;12.40;99.90;;;;;;5012090;28;20030;-84
2021/11/12 10:50:04;;;;;;;22.98;14.23;;;12.40;99.90;;;;;;5012052;28;20026;-84
2021/11/12 10:52:32;;;;;;;23.35;15.05;;;12.70;99.90;;;;;;5013309;28;20124;-84
2021/11/12 10:55:08;;;;;;;33.45;15.80;;;13.10;99.90;;;;;;5011881;28;20398;-84
2021/11/12 10:57:40;;;;;;;22.85;14.32;;;12.80;99.90;;;;;;5011921;28;20026;-84
2021/11/12 11:00:09;;;;;;;23.90;14.25;;;12.80;99.90;;;;;;5011909;28;20073;-85
2021/11/12 11:02:39;;;;;;;22.25;15.13;;;12.90;99.90;;;;;;5011842;28;20474;-83
2021/11/12 11:05:10;;;;;;;25.83;14.75;;;13.10;99.90;;;;;;5013842;28;20026;-84
2021/11/12 11:07:37;;;;;;;19.90;13.55;;;13.30;99.90;;;;;;5011899;28;20026;-84
2021/11/12 11:10:06;;;;;;;24.42;17.10;;;13.30;99.90;;;;;;5012170;28;20077;-83
2021/11/12 11:12:41;;;;;;;26.38;15.95;;;13.80;99.90;;;;;;5013407;28;20025;-84
2021/11/12 11:15:16;;;;;;;29.45;15.77;;;14.00;99.90;;;;;;5024465;28;20021;-83
2021/11/12 11:17:44;;;;;;;;;;;14.30;99.90;;;;;;5028234;28;20022;-83
2021/11/12 11:20:18;;;;;;;20.63;13.07;;;14.80;99.90;;;;;;5015584;28;19905;-84
2021/11/12 11:22:49;;;;;;;27.85;13.27;;;15.10;99.90;;;;;;5012480;28;20041;-84
2021/11/12 11:25:15;;;;;;;21.65;12.68;;;15.00;99.90;;;;;;5011962;28;20072;-84
2021/11/12 11:27:43;;;;;;;22.90;12.93;;;14.60;99.90;;;;;;5013721;28;20030;-84
2021/11/12 11:30:10;;;;;;;19.83;12.38;;;14.80;99.90;;;;;;5015527;28;20474;-84
2021/11/12 11:32:37;;;;;;;30.90;15.63;;;15.60;99.90;;;;;;5015424;28;20488;-84
2021/11/12 11:35:03;;;;;;;30.48;16.98;;;16.20;99.90;;;;;;5015311;28;20034;-84
2021/11/12 11:37:30;;;;;;;26.35;15.73;;;16.40;99.90;;;;;;5016850;28;20079;-84
2021/11/12 11:39:57;;;;;;;21.33;12.55;;;17.20;99.90;;;;;;5015336;28;20022;-84
2021/11/12 11:42:23;;;;;;;26.30;16.08;;;17.60;99.90;;;;;;5016135;28;20036;-85
2021/11/12 11:44:49;;;;;;;22.48;13.30;;;17.30;99.90;;;;;;5015205;28;20397;-84
2021/11/12 11:47:20;;;;;;;21.60;13.07;;;17.10;99.90;;;;;;5015085;28;20478;-84
2021/11/12 11:49:51;;;;;;;21.20;13.75;;;17.20;99.90;;;;;;5015143;28;20492;-84
2021/11/12 11:52:28;;;;;;;31.83;14.38;;;16.90;99.90;;;;;;5014994;28;20026;-83
2021/11/12 11:54:55;;;;;;;23.98;15.90;;;17.10;99.90;;;;;;5014943;28;20030;-84
2021/11/12 11:57:23;;;;;;;19.52;13.32;;;17.70;99.90;;;;;;5014858;28;20367;-83
2021/11/12 12:00:12;;;;;;;17.83;11.63;;;18.10;99.90;;;;;;5014866;28;20053;-84
2021/11/12 12:02:38;;;;;;;23.33;13.95;;;18.20;99.90;;;;;;5001886;28;20445;-85
2021/11/12 12:05:07;;;;;;;20.77;13.43;;;18.10;99.90;;;;;;5014702;28;20026;-81
2021/11/12 12:07:41;;;;;;;17.15;10.95;;;18.30;99.90;;;;;;5014678;28;20026;-81
2021/11/12 12:10:22;;;;;;;22.55;13.15;;;18.60;99.90;;;;;;5014725;28;20080;-81
2021/11/12 12:12:52;;;;;;;16.35;10.20;;;19.20;99.90;;;;;;5014602;28;20034;-82
2021/11/12 12:15:21;;;;;;;17.00;10.60;;;19.80;99.20;;;;;;5015755;28;20034;-82
2021/11/12 12:18:07;;;;;;;14.95;10.25;;;19.50;99.30;;;;;;5015751;28;20097;-82
2021/11/12 13:26:01;;;;;;;18.35;12.13;;;21.60;91.50;;;;;;5034753;28;20030;-82
2021/11/12 13:28:31;;;;;;;17.27;10.82;;;22.00;90.80;;;;;;5016984;28;20456;-83
2021/11/12 13:31:19;;;;;;;15.18;10.07;;;21.90;90.80;;;;;;5016366;28;20124;-83
2021/11/12 13:33:46;;;;;;;14.32;10.27;;;22.10;90.10;;;;;;5016153;28;20032;-83
2021/11/12 13:36:20;;;;;;;16.70;10.45;;;22.30;89.70;;;;;;5016341;28;20472;-83
2021/11/12 13:39:03;;;;;;;15.00;10.25;;;22.60;88.30;;;;;;5034333;28;20509;-83
2021/11/12 13:41:42;;;;;;;14.32;10.63;;;22.40;87.70;;;;;;5033919;28;20026;-83
2021/11/12 13:44:15;;;;;;;17.83;10.65;;;22.70;87.50;;;;;;5033824;28;20104;-83
2021/11/12 13:47:03;;;;;;;12.45;9.30;;;22.50;87.40;;;;;;5016698;28;20029;-83
2021/11/12 13:49:32;;;;;;;16.10;10.57;;;21.90;87.40;;;;;;5016098;28;20051;-80
2021/11/12 13:52:27;;;;;;;13.45;10.00;;;21.20;90.40;;;;;;5033426;28;20482;-83
2021/11/12 13:55:03;;;;;;;15.32;10.10;;;21.10;89.60;;;;;;5015910;28;20025;-80
2021/11/12 13:57:29;;;;;;;15.00;9.77;;;20.80;89.80;;;;;;5015869;28;20025;-83
2021/11/12 14:00:03;;;;;;;15.30;10.40;;;19.90;90.70;;;;;;5015849;28;20075;-83
2021/11/12 14:02:48;;;;;;;15.68;11.15;;;19.60;91.30;;;;;;5015931;28;20021;-84
2021/11/12 14:05:15;;;;;;;16.55;10.38;;;18.90;93.30;;;;;;5015815;28;20025;-83
2021/11/12 14:07:41;;;;;;;16.35;10.85;;;18.20;93.60;;;;;;5015817;28;20021;-84
2021/11/12 14:10:13;;;;;;;16.30;11.25;;;16.80;95.70;;;;;;5015778;28;20052;-84
2021/11/12 14:12:57;;;;;;;18.05;11.70;;;15.90;97.40;;;;;;5015752;28;20032;-83
2021/11/12 14:20:55;;;;;;;20.02;14.50;;;13.90;99.90;;;;;;5033397;28;20041;-83
2021/11/12 14:23:24;;;;;;;25.85;16.13;;;13.20;99.90;;;;;;5033341;28;20029;-83
2021/11/12 14:28:46;;;;;;;21.70;16.23;;;12.20;99.90;;;;;;5033313;28;20413;-83
2021/11/12 14:37:21;;;;;;;25.20;18.20;;;11.70;99.90;;;;;;5033411;28;20026;-83
2021/11/12 14:40:10;;;;;;;25.65;17.50;;;12.10;99.90;;;;;;5033057;28;20448;-83
2021/11/12 14:45:17;;;;;;;25.27;17.58;;;12.60;99.90;;;;;;5032995;28;20028;-82
2021/11/12 14:50:35;;;;;;;19.48;13.77;;;13.40;99.90;;;;;;5032976;28;20022;-83
2021/11/12 14:53:19;;;;;;;16.55;13.13;;;13.30;99.90;;;;;;5015215;28;20545;-83
2021/11/12 14:55:49;;;;;;;22.65;16.45;;;13.30;99.90;;;;;;5015826;28;20092;-83
2021/11/12 14:58:17;;;;;;;18.98;13.57;;;13.40;99.90;;;;;;5015210;28;20026;-83
2021/11/12 15:00:44;;;;;;;21.60;16.10;;;13.40;99.90;;;;;;5015103;28;20036;-83
2021/11/12 15:03:10;;;;;;;22.00;15.43;;;12.50;99.90;;;;;;5016591;28;20079;-82
2021/11/12 15:05:37;;;;;;;22.52;16.35;;;11.70;99.90;;;;;;5019011;28;20026;-82
2021/11/12 15:08:24;;;;;;;24.85;17.73;;;11.40;99.90;;;;;;5019053;28;20033;-82
2021/11/12 15:10:51;;;;;;;23.05;17.15;;;11.20;99.90;;;;;;5036764;28;20381;-83
2021/11/12 15:13:17;;;;;;;21.50;16.95;;;10.50;99.90;;;;;;5018879;28;20063;-83
2021/11/12 15:15:44;;;;;;;21.45;15.95;;;10.30;99.90;;;;;;5036606;28;20114;-83
2021/11/12 15:18:12;;;;;;;24.02;17.17;;;9.90;99.90;;;;;;5018805;28;20029;-83
2021/11/12 15:20:39;;;;;;;25.98;17.98;;;9.10;99.90;;;;;;5018782;28;20022;-83
2021/11/12 15:28:48;;;;;;;29.85;20.38;;;7.80;99.90;;;;;;5036446;28;20025;-82
2021/11/12 15:31:24;;;;;;;25.20;18.73;;;7.60;99.90;;;;;;5018705;28;20060;-82
2021/11/12 15:33:58;;;;;;;24.60;18.50;;;7.40;99.90;;;;;;5019191;28;20389;-82
2021/11/12 15:36:24;;;;;;;22.73;17.63;;;7.30;99.90;;;;;;5019464;28;20053;-82
2021/11/12 15:39:30;;;;;;;28.85;19.08;;;7.30;99.90;;;;;;5018890;28;20021;-82
2021/11/12 15:44:19;;;;;;;23.77;15.75;;;7.20;99.90;;;;;;5036300;28;20026;-82
2021/11/12 15:46:48;;;;;;;23.08;16.48;;;7.20;99.90;;;;;;5018369;28;20064;-82
2021/11/12 15:49:18;;;;;;;23.45;17.77;;;7.20;99.90;;;;;;5018304;28;20485;-82
2021/11/12 15:51:50;;;;;;;24.50;18.15;;;7.30;99.90;;;;;;5018211;28;20501;-82
2021/11/12 15:57:16;;;;;;;28.67;20.23;;;7.10;99.90;;;;;;5035943;28;20036;-82
2021/11/12 16:02:46;;;;;;;24.73;17.98;;;6.90;99.90;;;;;;5036418;28;20491;-82
2021/11/12 16:13:16;;;;;;;42.20;25.88;;;6.50;99.90;;;;;;5035932;28;20091;-82
2021/11/12 16:18:35;;;;;;;33.05;21.00;;;6.40;99.90;;;;;;5035556;28;20037;-82
2021/11/12 16:21:12;;;;;;;33.97;21.92;;;6.40;99.90;;;;;;5034598;28;20086;-82
2021/11/12 16:26:20;;;;;;;32.45;22.02;;;6.40;99.90;;;;;;5035973;28;20021;-82
2021/11/12 16:31:35;;;;;;;38.55;21.73;;;6.40;99.90;;;;;;5035858;28;20220;-81
2021/11/12 16:34:15;;;;;;;34.45;22.08;;;6.30;99.90;;;;;;5017405;28;20111;-82
2021/11/12 16:36:45;;;;;;;34.47;21.88;;;6.20;99.90;;;;;;5035219;28;20487;-82
2021/11/12 16:39:14;;;;;;;48.50;25.20;;;6.10;99.90;;;;;;5017392;28;20481;-82
2021/11/12 16:41:51;;;;;;;42.08;21.38;;;6.30;99.90;;;;;;5017303;28;20083;-83
2021/11/12 16:49:43;;;;;;;47.30;23.95;;;6.40;99.90;;;;;;5035025;28;20028;-83
2021/11/12 16:52:23;;;;;;;35.28;23.48;;;6.20;99.90;;;;;;5034928;28;20485;-82
2021/11/12 16:57:54;;;;;;;51.00;25.87;;;6.00;99.90;;;;;;5035373;28;20021;-82
2021/11/12 17:02:57;;;;;;;39.35;24.15;;;6.00;99.90;;;;;;5034666;28;20025;-82
2021/11/12 17:05:35;;;;;;;41.42;25.50;;;5.80;99.90;;;;;;5016862;28;20041;-82
2021/11/12 17:11:03;;;;;;;45.78;22.95;;;5.90;99.90;;;;;;5034839;28;20378;-82
2021/11/12 17:13:34;;;;;;;40.45;25.48;;;5.80;99.90;;;;;;5033813;28;20555;-82
2021/11/12 17:47:51;;;;;;;26.92;18.23;;;6.00;99.90;;;;;;5035307;28;20055;-83
2021/11/12 18:01:42;;;;;;;41.30;23.45;;;6.10;99.90;;;;;;5034272;28;20102;-82
2021/11/12 18:02:05;;;;;;;59.03;20.55;;;6.10;99.90;;;;;;5033514;28;20029;-82
2021/11/12 21:45:35;;;;;;;;;;;4.00;99.90;;;;;;5036431;28;19960;-87
2021/11/12 21:48:00;;;;;;;;;;;3.80;99.90;;;;;;5018177;28;20422;-87
2021/11/12 21:50:26;;;;;;;;;;;3.80;99.90;;;;;;5018878;28;19905;-86
2021/11/12 21:52:52;;;;;;;;;;;3.90;99.90;;;;;;5016696;28;20268;-87
2021/11/12 21:55:17;;;;;;;;;;;3.80;99.90;;;;;;5034695;28;19920;-86
2021/11/12 21:57:43;;;;;;;;;;;3.70;99.90;;;;;;5031120;28;19976;-85
2021/11/12 22:00:09;;;;;;;;;;;3.80;99.90;;;;;;5037498;28;19905;-86
2021/11/12 22:02:35;;;;;;;;;;;3.80;99.90;;;;;;5022342;28;19905;-86
2021/11/12 22:05:00;;;;;;;;;;;3.90;99.90;;;;;;5036867;28;19969;-86
2021/11/12 22:07:26;;;;;;;;;;;4.20;99.90;;;;;;5020146;28;20012;-86
2021/11/12 22:09:52;;;;;;;;;;;4.30;99.90;;;;;;5020255;28;19905;-86
2021/11/12 22:12:17;;;;;;;;;;;4.30;99.90;;;;;;5017604;28;19905;-87
2021/11/12 22:14:43;;;;;;;;;;;4.30;99.90;;;;;;5018739;28;20372;-87
2021/11/12 22:17:09;;;;;;;;;;;4.30;99.90;;;;;;5018707;28;20007;-86
2021/11/12 22:19:35;;;;;;;;;;;4.00;99.90;;;;;;5018662;28;20272;-86
2021/11/12 22:22:01;;;;;;;;;;;3.90;99.90;;;;;;5018213;28;19947;-86
2021/11/12 22:24:26;;;;;;;;;;;3.90;99.90;;;;;;5018849;28;19905;-87
2021/11/12 22:26:52;;;;;;;;;;;4.10;99.90;;;;;;5018894;28;19905;-86
2021/11/12 22:29:18;;;;;;;;;;;3.90;99.90;;;;;;5018864;28;19956;-86
2021/11/12 22:31:44;;;;;;;;;;;3.90;99.90;;;;;;5018317;28;20012;-86
2021/11/12 22:34:09;;;;;;;;;;;3.80;99.90;;;;;;5018293;28;20008;-86
2021/11/12 22:36:35;;;;;;;;;;;3.80;99.90;;;;;;5018658;28;20273;-86
2021/11/12 22:39:01;;;;;;;;;;;3.70;99.90;;;;;;5018110;28;19905;-86
2021/11/12 22:41:26;;;;;;;;;;;3.80;99.90;;;;;;5018092;28;19905;-86
2021/11/12 22:43:58;;;;;;;;;;;3.80;99.90;;;;;;5017642;28;19985;-86